createdAt,value
2019-03-24T00:00:25.922Z,22.63
2019-03-24T00:02:54.399Z,20.57
2019-03-24T00:05:27.877Z,21.13
2019-03-24T00:07:53.614Z,20.30
2019-03-24T00:10:22.329Z,21.40
2019-03-24T00:12:50.788Z,21.53
2019-03-24T00:15:26.366Z,20.77
2019-03-24T00:17:49.663Z,21.30
2019-03-24T00:20:18.305Z,20.57
2019-03-24T00:22:46.993Z,20.77
2019-03-24T00:25:15.503Z,20.30
2019-03-24T00:27:44.042Z,18.43
2019-03-24T00:30:13.351Z,18.23
2019-03-24T00:32:41.962Z,18.93
2019-03-24T00:35:10.590Z,18.67
2019-03-24T00:37:41.493Z,19.03
2019-03-24T00:40:10.344Z,19.07
2019-03-24T00:42:39.025Z,18.30
2019-03-24T00:45:11.263Z,19.70
2019-03-24T00:47:39.409Z,19.07
2019-03-24T00:50:09.335Z,17.67
2019-03-24T00:52:37.890Z,18.73
2019-03-24T00:55:09.394Z,19.00
2019-03-24T00:57:38.054Z,17.43
2019-03-24T01:00:08.052Z,18.73
2019-03-24T01:02:36.607Z,18.10
2019-03-24T01:05:09.770Z,17.53
2019-03-24T01:07:38.276Z,18.63
2019-03-24T01:10:08.980Z,18.50
2019-03-24T01:12:37.597Z,17.30
2019-03-24T01:15:07.828Z,18.10
2019-03-24T01:17:37.464Z,16.87
2019-03-24T01:20:07.975Z,18.00
2019-03-24T01:22:36.787Z,18.80
2019-03-24T01:25:09.800Z,17.03
2019-03-24T01:27:40.159Z,18.60
2019-03-24T01:30:09.238Z,16.83
2019-03-24T01:32:37.764Z,17.80
2019-03-24T01:35:07.076Z,17.83
2019-03-24T01:37:35.612Z,18.13
2019-03-24T01:40:06.018Z,18.23
2019-03-24T01:42:34.487Z,19.27
2019-03-24T01:45:03.403Z,17.50
2019-03-24T01:47:32.007Z,16.23
2019-03-24T01:50:00.499Z,17.23
2019-03-24T01:52:29.062Z,17.85
2019-03-24T01:54:57.673Z,16.50
2019-03-24T01:57:26.212Z,18.07
2019-03-24T01:59:54.753Z,16.80
2019-03-24T02:02:23.395Z,17.63
2019-03-24T02:04:52.003Z,16.20
2019-03-24T02:07:20.651Z,15.53
2019-03-24T02:09:49.269Z,15.53
2019-03-24T02:12:17.805Z,16.37
2019-03-24T02:14:46.271Z,14.90
2019-03-24T02:17:14.893Z,15.37
2019-03-24T02:19:43.489Z,15.17
2019-03-24T02:22:12.050Z,16.33
2019-03-24T02:24:40.692Z,16.07
2019-03-24T02:27:09.238Z,15.20
2019-03-24T02:29:37.718Z,14.90
2019-03-24T02:32:06.247Z,16.97
2019-03-24T02:34:37.870Z,15.97
2019-03-24T02:37:09.032Z,17.60
2019-03-24T02:39:37.644Z,17.70
2019-03-24T02:42:06.375Z,18.83
2019-03-24T02:44:34.840Z,18.27
2019-03-24T02:47:03.507Z,18.03
2019-03-24T02:49:32.024Z,17.30
2019-03-24T02:52:00.595Z,18.33
2019-03-24T02:54:29.202Z,17.43
2019-03-24T02:56:57.801Z,17.53
2019-03-24T02:59:26.384Z,18.70
2019-03-24T03:01:55.093Z,18.83
2019-03-24T03:04:23.641Z,18.93
2019-03-24T03:06:52.266Z,19.67
2019-03-24T03:09:20.810Z,19.73
2019-03-24T03:11:49.338Z,19.33
2019-03-24T03:14:19.092Z,19.97
2019-03-24T03:16:47.608Z,17.53
2019-03-24T03:19:16.188Z,17.53
2019-03-24T03:21:44.755Z,17.40
2019-03-24T03:24:13.359Z,17.30
2019-03-24T03:26:41.968Z,19.13
2019-03-24T03:29:10.498Z,19.53
2019-03-24T03:31:39.149Z,19.67
2019-03-24T03:34:07.997Z,19.33
2019-03-24T03:36:36.569Z,18.83
2019-03-24T03:39:06.748Z,18.93
2019-03-24T03:41:35.360Z,19.43
2019-03-24T03:44:04.255Z,18.20
2019-03-24T03:46:32.711Z,18.30
2019-03-24T03:49:01.239Z,17.70
2019-03-24T03:51:29.703Z,17.17
2019-03-24T03:53:59.221Z,17.07
2019-03-24T03:56:28.152Z,16.07
2019-03-24T03:58:56.650Z,16.17
2019-03-24T04:01:25.247Z,15.67
2019-03-24T04:03:53.722Z,15.97
2019-03-24T04:06:22.254Z,16.67
2019-03-24T04:08:50.868Z,16.47
2019-03-24T04:11:21.494Z,16.93
2019-03-24T04:13:50.096Z,16.17
2019-03-24T04:16:18.665Z,18.73
2019-03-24T04:18:47.198Z,19.87
2019-03-24T04:21:15.747Z,21.15
2019-03-24T04:23:45.666Z,20.05
2019-03-24T04:26:14.121Z,19.93
2019-03-24T04:28:42.700Z,19.42
2019-03-24T04:31:11.236Z,20.50
2019-03-24T04:33:39.703Z,21.75
2019-03-24T04:36:08.307Z,28.00
2019-03-24T04:38:36.848Z,29.90
2019-03-24T04:41:11.268Z,30.23
2019-03-24T04:43:39.798Z,26.77
2019-03-24T04:46:08.335Z,28.07
2019-03-24T04:48:38.163Z,24.90
2019-03-24T04:51:06.745Z,21.97
2019-03-24T04:53:35.274Z,22.57
2019-03-24T04:56:03.744Z,24.97
2019-03-24T04:58:32.215Z,24.00
2019-03-24T05:01:00.756Z,23.50
2019-03-24T05:03:29.265Z,25.93
2019-03-24T05:05:57.870Z,24.00
2019-03-24T05:08:26.780Z,25.45
2019-03-24T05:10:55.314Z,25.53
2019-03-24T05:13:23.782Z,25.07
2019-03-24T05:15:52.391Z,25.30
2019-03-24T05:18:20.930Z,24.23
2019-03-24T05:20:49.395Z,24.90
2019-03-24T05:23:17.867Z,24.10
2019-03-24T05:25:46.340Z,24.30
2019-03-24T05:28:14.903Z,22.55
2019-03-24T05:30:43.380Z,48.07
2019-03-24T05:33:11.885Z,48.50
2019-03-24T05:35:40.562Z,40.70
2019-03-24T05:38:09.252Z,54.88
2019-03-24T05:40:37.829Z,55.00
2019-03-24T05:43:06.375Z,56.25
2019-03-24T05:45:34.983Z,59.27
2019-03-24T05:48:03.469Z,54.08
2019-03-24T05:50:32.033Z,58.80
2019-03-24T05:53:00.569Z,64.70
2019-03-24T05:55:30.780Z,65.47
2019-03-24T05:58:06.396Z,60.65
2019-03-24T06:00:36.584Z,64.67
2019-03-24T06:03:05.222Z,61.63
2019-03-24T06:05:33.700Z,63.75
2019-03-24T06:08:02.230Z,61.25
2019-03-24T06:10:30.867Z,65.40
2019-03-24T06:12:59.417Z,64.07
2019-03-24T06:15:28.045Z,62.70
2019-03-24T06:17:56.506Z,61.37
2019-03-24T06:20:25.149Z,58.38
2019-03-24T06:22:53.626Z,60.03
2019-03-24T06:25:22.183Z,51.18
2019-03-24T06:27:50.704Z,50.05
2019-03-24T06:30:19.316Z,57.35
2019-03-24T06:32:47.786Z,62.05
2019-03-24T06:35:16.392Z,64.15
2019-03-24T06:37:44.932Z,64.37
2019-03-24T06:40:13.543Z,61.28
2019-03-24T06:42:42.108Z,61.70
2019-03-24T06:45:11.022Z,58.60
2019-03-24T06:47:39.570Z,60.92
2019-03-24T06:50:08.680Z,60.83
2019-03-24T06:52:37.321Z,62.13
2019-03-24T06:55:05.923Z,62.05
2019-03-24T06:57:34.533Z,62.53
2019-03-24T07:00:03.216Z,63.75
2019-03-24T07:02:31.697Z,63.38
2019-03-24T07:05:00.379Z,63.65
2019-03-24T07:07:28.971Z,63.65
2019-03-24T07:09:57.546Z,59.88
2019-03-24T07:12:26.225Z,60.40
2019-03-24T07:14:54.779Z,63.60
2019-03-24T07:17:23.315Z,63.00
2019-03-24T07:19:51.918Z,62.00
2019-03-24T07:22:21.202Z,62.23
2019-03-24T07:24:49.686Z,63.50
2019-03-24T07:27:18.251Z,64.05
2019-03-24T07:29:46.776Z,58.28
2019-03-24T07:32:15.391Z,59.88
2019-03-24T07:34:43.892Z,63.13
2019-03-24T07:37:12.428Z,58.80
2019-03-24T07:39:40.978Z,60.25
2019-03-24T07:42:09.632Z,57.98
2019-03-24T07:44:38.238Z,58.25
2019-03-24T07:47:14.629Z,58.20
2019-03-24T07:49:43.741Z,59.27
2019-03-24T07:52:12.343Z,55.73
2019-03-24T07:54:41.490Z,61.80
2019-03-24T07:57:10.096Z,59.67
2019-03-24T07:59:38.799Z,60.15
2019-03-24T08:02:07.408Z,57.35
2019-03-24T08:04:35.945Z,55.33
2019-03-24T08:07:04.564Z,57.53
2019-03-24T08:09:33.175Z,59.18
2019-03-24T08:12:01.888Z,60.63
2019-03-24T08:14:30.385Z,58.50
2019-03-24T08:16:59.020Z,59.00
2019-03-24T08:19:27.665Z,58.92
2019-03-24T08:21:56.208Z,58.78
2019-03-24T08:24:24.812Z,60.45
2019-03-24T08:26:53.361Z,56.53
2019-03-24T08:29:21.975Z,55.15
2019-03-24T08:31:53.402Z,55.75
2019-03-24T08:34:22.012Z,57.80
2019-03-24T08:36:50.652Z,58.42
2019-03-24T08:39:22.726Z,53.23
2019-03-24T08:41:51.290Z,54.65
2019-03-24T08:44:19.832Z,54.55
2019-03-24T08:46:48.344Z,51.73
2019-03-24T08:49:16.895Z,53.50
2019-03-24T08:51:51.206Z,52.55
2019-03-24T08:54:15.789Z,53.80
2019-03-24T08:56:44.406Z,55.20
2019-03-24T08:59:13.038Z,53.78
2019-03-24T09:01:41.642Z,50.80
2019-03-24T09:04:12.951Z,51.77
2019-03-24T09:06:41.438Z,52.65
2019-03-24T09:09:09.980Z,50.33
2019-03-24T09:11:38.590Z,49.60
2019-03-24T09:14:07.388Z,51.10
2019-03-24T09:16:36.019Z,51.15
2019-03-24T09:19:04.696Z,50.63
2019-03-24T09:21:33.246Z,47.10
2019-03-24T09:24:01.925Z,49.63
2019-03-24T09:26:30.492Z,48.45
2019-03-24T09:28:59.394Z,46.73
2019-03-24T09:31:28.031Z,45.25
2019-03-24T09:33:56.598Z,46.33
2019-03-24T09:36:25.216Z,45.35
2019-03-24T09:38:53.759Z,45.12
2019-03-24T09:41:22.389Z,45.67
2019-03-24T09:43:50.956Z,45.83
2019-03-24T09:46:19.672Z,46.15
2019-03-24T09:48:48.216Z,44.18
2019-03-24T09:51:17.556Z,45.30
2019-03-24T09:53:46.052Z,41.85
2019-03-24T09:56:14.732Z,41.58
2019-03-24T09:58:43.329Z,42.45
2019-03-24T10:01:11.875Z,41.92
2019-03-24T10:03:40.422Z,43.73
2019-03-24T10:06:09.059Z,41.68
2019-03-24T10:08:46.782Z,42.90
2019-03-24T10:11:07.872Z,43.87
2019-03-24T10:13:36.422Z,42.73
2019-03-24T10:16:05.047Z,42.67
2019-03-24T10:18:34.476Z,42.38
2019-03-24T10:21:03.117Z,43.38
2019-03-24T10:23:31.654Z,38.90
2019-03-24T10:26:00.294Z,41.18
2019-03-24T10:28:28.820Z,41.77
2019-03-24T10:30:57.379Z,40.08
2019-03-24T10:33:25.829Z,38.58
2019-03-24T10:35:54.368Z,37.75
2019-03-24T10:38:22.910Z,37.63
2019-03-24T10:40:51.520Z,39.10
2019-03-24T10:43:22.198Z,41.58
2019-03-24T10:45:50.384Z,41.55
2019-03-24T10:48:18.911Z,41.58
2019-03-24T10:50:47.527Z,41.60
2019-03-24T10:53:16.065Z,39.50
2019-03-24T10:55:44.704Z,40.58
2019-03-24T10:58:14.934Z,39.20
2019-03-24T11:00:44.039Z,40.65
2019-03-24T11:03:12.680Z,38.95
2019-03-24T11:05:41.369Z,41.35
2019-03-24T11:08:09.925Z,41.35
2019-03-24T11:10:38.546Z,40.65
2019-03-24T11:13:07.322Z,38.70
2019-03-24T11:15:35.899Z,38.65
2019-03-24T11:18:04.613Z,39.85
2019-03-24T11:20:33.152Z,40.90
2019-03-24T11:23:01.694Z,39.55
2019-03-24T11:25:30.618Z,41.23
2019-03-24T11:27:59.094Z,40.03
2019-03-24T11:30:27.637Z,40.35
2019-03-24T11:32:56.277Z,40.08
2019-03-24T11:35:24.931Z,40.43
2019-03-24T11:37:53.552Z,40.92
2019-03-24T11:40:22.142Z,40.83
2019-03-24T11:42:50.765Z,41.08
2019-03-24T11:45:19.376Z,40.85
2019-03-24T11:47:47.873Z,39.73
2019-03-24T11:50:16.498Z,40.52
2019-03-24T11:52:45.053Z,38.38
2019-03-24T11:55:13.860Z,41.33
2019-03-24T11:57:42.504Z,37.60
2019-03-24T12:00:17.980Z,39.90
2019-03-24T12:02:48.784Z,39.38
2019-03-24T12:05:17.663Z,40.08
2019-03-24T12:07:46.271Z,41.83
2019-03-24T12:10:15.184Z,41.55
2019-03-24T12:12:43.656Z,39.08
2019-03-24T12:15:12.565Z,40.20
2019-03-24T12:17:42.884Z,39.48
2019-03-24T12:20:11.593Z,40.08
2019-03-24T12:22:40.215Z,36.45
2019-03-24T12:25:09.316Z,40.35
2019-03-24T12:27:37.780Z,37.28
2019-03-24T12:30:08.220Z,40.73
2019-03-24T12:32:36.852Z,38.38
2019-03-24T12:35:09.457Z,38.42
2019-03-24T12:37:37.997Z,38.90
2019-03-24T12:40:10.580Z,40.28
2019-03-24T12:42:39.667Z,38.38
2019-03-24T12:45:10.418Z,36.68
2019-03-24T12:47:39.029Z,37.85
2019-03-24T12:50:10.336Z,38.10
2019-03-24T12:52:39.088Z,38.35
2019-03-24T12:55:07.999Z,35.48
2019-03-24T12:57:36.655Z,39.30
2019-03-24T13:00:07.409Z,36.73
2019-03-24T13:02:36.012Z,38.38
2019-03-24T13:05:07.289Z,38.28
2019-03-24T13:07:35.827Z,38.30
2019-03-24T13:10:07.431Z,38.50
2019-03-24T13:12:36.060Z,39.80
2019-03-24T13:15:07.163Z,38.55
2019-03-24T13:17:35.784Z,37.48
2019-03-24T13:20:19.503Z,38.15
2019-03-24T13:22:39.369Z,37.95
2019-03-24T13:25:08.176Z,37.10
2019-03-24T13:27:36.782Z,37.08
2019-03-24T13:30:08.807Z,36.90
2019-03-24T13:32:37.426Z,35.85
2019-03-24T13:35:06.076Z,36.08
2019-03-24T13:37:34.617Z,35.95
2019-03-24T13:40:03.519Z,34.73
2019-03-24T13:42:32.175Z,38.20
2019-03-24T13:45:00.706Z,35.78
2019-03-24T13:47:29.321Z,36.20
2019-03-24T13:49:57.791Z,36.70
2019-03-24T13:52:26.401Z,38.10
2019-03-24T13:54:54.991Z,37.17
2019-03-24T13:57:23.600Z,34.58
2019-03-24T13:59:52.151Z,34.73
2019-03-24T14:02:20.925Z,36.05
2019-03-24T14:04:49.455Z,35.90
2019-03-24T14:07:18.089Z,37.00
2019-03-24T14:09:46.625Z,35.13
2019-03-24T14:12:15.243Z,35.43
2019-03-24T14:14:43.811Z,35.05
2019-03-24T14:17:12.448Z,35.73
2019-03-24T14:19:41.055Z,36.50
2019-03-24T14:22:09.598Z,35.83
2019-03-24T14:24:38.135Z,34.10
2019-03-24T14:27:06.807Z,34.90
2019-03-24T14:29:35.419Z,34.70
2019-03-24T14:32:03.989Z,31.30
2019-03-24T14:34:32.595Z,33.35
2019-03-24T14:37:01.206Z,35.92
2019-03-24T14:39:29.742Z,32.73
2019-03-24T14:41:58.356Z,35.50
2019-03-24T14:44:26.897Z,31.62
2019-03-24T14:46:55.516Z,30.97
2019-03-24T14:49:26.838Z,31.27
2019-03-24T14:51:55.479Z,31.50
2019-03-24T14:54:24.076Z,30.95
2019-03-24T14:56:54.802Z,30.85
2019-03-24T14:59:22.950Z,33.65
2019-03-24T15:01:51.559Z,33.42
2019-03-24T15:04:20.184Z,31.80
2019-03-24T15:06:48.832Z,29.63
2019-03-24T15:09:17.538Z,30.57
2019-03-24T15:11:46.050Z,29.55
2019-03-24T15:14:14.660Z,28.47
2019-03-24T15:16:43.201Z,27.35
2019-03-24T15:19:11.791Z,28.00
2019-03-24T15:21:41.842Z,27.55
2019-03-24T15:24:10.387Z,28.30
2019-03-24T15:26:38.967Z,27.67
2019-03-24T15:29:07.577Z,26.30
2019-03-24T15:31:36.192Z,27.60
2019-03-24T15:34:04.803Z,27.55
2019-03-24T15:36:33.423Z,26.70
2019-03-24T15:39:01.955Z,24.90
2019-03-24T15:41:30.597Z,25.52
2019-03-24T15:43:59.151Z,25.43
2019-03-24T15:46:27.698Z,25.97
2019-03-24T15:48:56.238Z,26.25
2019-03-24T15:51:24.849Z,24.27
2019-03-24T15:53:53.321Z,25.88
2019-03-24T15:56:21.932Z,24.90
2019-03-24T15:58:50.540Z,23.70
2019-03-24T16:01:19.088Z,24.85
2019-03-24T16:03:47.861Z,23.12
2019-03-24T16:06:16.331Z,23.10
2019-03-24T16:08:45.918Z,23.00
2019-03-24T16:11:16.096Z,24.40
2019-03-24T16:13:44.724Z,22.70
2019-03-24T16:16:13.263Z,22.52
2019-03-24T16:18:41.730Z,22.70
2019-03-24T16:21:10.270Z,24.72
2019-03-24T16:23:38.911Z,22.75
2019-03-24T16:26:07.518Z,21.95
2019-03-24T16:28:36.083Z,23.18
2019-03-24T16:31:04.717Z,21.85
2019-03-24T16:33:33.241Z,23.45
2019-03-24T16:36:01.786Z,21.57
2019-03-24T16:38:30.419Z,21.82
2019-03-24T16:40:58.888Z,21.95
2019-03-24T16:43:37.958Z,23.95
2019-03-24T16:45:57.785Z,23.80
2019-03-24T16:48:36.394Z,25.02
2019-03-24T16:50:56.730Z,24.75
2019-03-24T16:53:25.267Z,25.77
2019-03-24T16:55:53.831Z,28.35
2019-03-24T16:58:22.469Z,29.20
2019-03-24T17:00:51.090Z,29.27
2019-03-24T17:03:19.725Z,31.37
2019-03-24T17:05:48.337Z,32.03
2019-03-24T17:08:16.909Z,33.08
2019-03-24T17:10:45.508Z,33.45
2019-03-24T17:13:14.102Z,33.28
2019-03-24T17:15:42.715Z,32.73
2019-03-24T17:18:11.322Z,30.40
2019-03-24T17:20:39.997Z,32.83
2019-03-24T17:23:08.611Z,31.40
2019-03-24T17:25:37.084Z,32.65
2019-03-24T17:28:05.699Z,33.28
2019-03-24T17:30:34.369Z,32.90
2019-03-24T17:33:03.000Z,34.13
2019-03-24T17:35:31.606Z,33.45
2019-03-24T17:38:00.234Z,31.85
2019-03-24T17:40:28.797Z,33.15
2019-03-24T17:42:57.474Z,33.48
2019-03-24T17:45:26.004Z,34.03
2019-03-24T17:47:54.579Z,30.45
2019-03-24T17:50:23.184Z,27.62
2019-03-24T17:52:51.795Z,29.63
2019-03-24T17:55:27.502Z,29.67
2019-03-24T17:57:56.228Z,29.10
2019-03-24T18:00:36.498Z,29.67
2019-03-24T18:03:05.120Z,28.90
2019-03-24T18:05:33.656Z,30.12
2019-03-24T18:08:02.355Z,33.67
2019-03-24T18:10:30.890Z,34.30
2019-03-24T18:12:59.494Z,36.63
2019-03-24T18:15:28.065Z,40.17
2019-03-24T18:17:56.672Z,39.85
2019-03-24T18:20:35.717Z,35.73
2019-03-24T18:23:04.424Z,35.92
2019-03-24T18:25:33.033Z,34.92
2019-03-24T18:28:03.414Z,33.10
2019-03-24T18:30:32.050Z,32.38
2019-03-24T18:33:00.661Z,31.68
2019-03-24T18:35:29.193Z,34.10
2019-03-24T18:37:57.734Z,31.82
2019-03-24T18:40:26.349Z,30.48
2019-03-24T18:42:54.879Z,32.88
2019-03-24T18:45:23.501Z,34.70
2019-03-24T18:47:52.089Z,31.62
2019-03-24T18:50:20.732Z,31.55
2019-03-24T18:52:50.247Z,32.33
2019-03-24T18:55:19.052Z,31.85
2019-03-24T18:57:47.676Z,28.23
2019-03-24T19:00:18.128Z,28.45
2019-03-24T19:02:46.781Z,27.77
2019-03-24T19:05:16.284Z,29.02
2019-03-24T19:07:44.827Z,30.62
2019-03-24T19:10:15.371Z,32.15
2019-03-24T19:12:43.977Z,32.35
2019-03-24T19:15:16.160Z,38.23
2019-03-24T19:17:45.009Z,38.73
2019-03-24T19:20:14.286Z,40.67
2019-03-24T19:22:42.880Z,34.80
2019-03-24T19:25:12.876Z,35.88
2019-03-24T19:27:41.521Z,37.55
2019-03-24T19:30:15.733Z,33.33
2019-03-24T19:32:44.335Z,29.70
2019-03-24T19:35:15.442Z,29.95
2019-03-24T19:37:46.199Z,31.37
2019-03-24T19:40:26.651Z,34.90
2019-03-24T19:42:55.794Z,32.50
2019-03-24T19:45:24.672Z,32.42
2019-03-24T19:47:54.374Z,33.88
2019-03-24T19:50:22.996Z,36.28
2019-03-24T19:52:51.621Z,36.93
2019-03-24T19:55:20.208Z,35.60
2019-03-24T19:57:48.844Z,37.28
2019-03-24T20:00:17.452Z,36.73
2019-03-24T20:02:46.102Z,36.03
2019-03-24T20:05:14.743Z,35.00
2019-03-24T20:07:47.850Z,32.65
2019-03-24T20:10:15.124Z,31.40
2019-03-24T20:12:43.661Z,32.30
2019-03-24T20:15:13.437Z,30.45
2019-03-24T20:17:42.069Z,30.37
2019-03-24T20:20:10.778Z,31.65
2019-03-24T20:22:39.393Z,29.70
2019-03-24T20:25:08.000Z,30.37
2019-03-24T20:27:36.615Z,30.20
2019-03-24T20:30:10.899Z,29.27
2019-03-24T20:32:39.545Z,28.38
2019-03-24T20:35:08.784Z,30.12
2019-03-24T20:37:37.321Z,29.87
2019-03-24T20:40:07.127Z,30.00
2019-03-24T20:42:35.667Z,28.73
2019-03-24T20:45:07.273Z,30.43
2019-03-24T20:47:35.878Z,30.97
2019-03-24T20:50:08.952Z,34.00
2019-03-24T20:52:37.556Z,34.80
2019-03-24T20:55:07.584Z,34.33
2019-03-24T20:57:36.094Z,35.40
2019-03-24T21:00:10.082Z,37.03
2019-03-24T21:02:41.326Z,34.70
2019-03-24T21:05:11.130Z,32.35
2019-03-24T21:07:40.100Z,28.17
2019-03-24T21:10:09.201Z,27.00
2019-03-24T21:12:37.837Z,29.55
2019-03-24T21:15:11.168Z,28.25
2019-03-24T21:17:38.775Z,27.03
2019-03-24T21:20:08.187Z,22.98
2019-03-24T21:22:36.722Z,24.35
2019-03-24T21:25:06.828Z,23.00
2019-03-24T21:27:36.579Z,21.77
2019-03-24T21:30:15.086Z,25.00
2019-03-24T21:32:41.100Z,27.98
2019-03-24T21:35:10.339Z,21.60
2019-03-24T21:37:38.955Z,20.82
2019-03-24T21:40:07.786Z,21.93
2019-03-24T21:42:36.393Z,21.68
2019-03-24T21:45:08.058Z,19.15
2019-03-24T21:47:36.731Z,23.02
2019-03-24T21:50:06.917Z,23.70
2019-03-24T21:52:35.510Z,26.40
2019-03-24T21:55:05.115Z,26.05
2019-03-24T21:57:34.076Z,27.52
2019-03-24T22:00:02.759Z,26.77
2019-03-24T22:02:31.260Z,26.13
2019-03-24T22:04:59.801Z,30.43
2019-03-24T22:07:32.806Z,25.97
2019-03-24T22:09:58.739Z,25.30
2019-03-24T22:12:27.346Z,22.23
2019-03-24T22:14:55.896Z,24.52
2019-03-24T22:17:24.466Z,24.18
2019-03-24T22:19:53.001Z,28.50
2019-03-24T22:22:21.611Z,28.67
2019-03-24T22:24:50.150Z,28.52
2019-03-24T22:27:18.755Z,24.77
2019-03-24T22:29:47.299Z,25.23
2019-03-24T22:32:15.775Z,25.17
2019-03-24T22:34:44.277Z,24.47
2019-03-24T22:37:16.063Z,22.07
2019-03-24T22:39:43.008Z,21.85
2019-03-24T22:42:11.642Z,21.27
2019-03-24T22:44:40.134Z,22.05
2019-03-24T22:47:08.674Z,22.35
2019-03-24T22:49:37.293Z,22.22
2019-03-24T22:52:07.577Z,23.20
2019-03-24T22:54:36.342Z,23.80
2019-03-24T22:57:04.927Z,23.38
2019-03-24T22:59:33.535Z,19.57
2019-03-24T23:02:02.355Z,22.93
2019-03-24T23:04:33.916Z,24.53
2019-03-24T23:07:02.527Z,23.92
2019-03-24T23:09:30.998Z,23.55
2019-03-24T23:11:59.614Z,21.15
2019-03-24T23:14:28.261Z,20.45
2019-03-24T23:16:56.878Z,22.77
2019-03-24T23:19:25.411Z,22.20
2019-03-24T23:21:53.883Z,24.95
2019-03-24T23:24:22.419Z,29.72
2019-03-24T23:26:51.136Z,27.93
2019-03-24T23:29:19.742Z,29.45
2019-03-24T23:31:48.336Z,31.02
2019-03-24T23:34:16.939Z,28.32
2019-03-24T23:36:45.479Z,26.90
2019-03-24T23:39:13.989Z,26.10
2019-03-24T23:41:44.003Z,26.50
2019-03-24T23:44:14.092Z,25.32
2019-03-24T23:46:42.700Z,25.80
2019-03-24T23:49:11.236Z,27.52
2019-03-24T23:51:39.808Z,32.70
2019-03-24T23:54:08.371Z,32.58
2019-03-24T23:56:36.954Z,32.20
2019-03-24T23:59:05.556Z,31.55
